createdAt,value
2018-03-24T00:00:32.042Z,4.20
2018-03-24T00:02:59.738Z,4.10
2018-03-24T00:05:27.445Z,4.20
2018-03-24T00:07:54.991Z,4.20
2018-03-24T00:10:22.707Z,4.30
2018-03-24T00:12:51.083Z,4.30
2018-03-24T00:15:18.665Z,4.40
2018-03-24T00:17:46.382Z,4.40
2018-03-24T00:20:14.705Z,4.30
2018-03-24T00:22:42.276Z,4.30
2018-03-24T00:25:09.979Z,4.30
2018-03-24T00:27:38.294Z,4.30
2018-03-24T00:30:05.929Z,4.30
2018-03-24T00:32:35.058Z,4.30
2018-03-24T00:35:03.687Z,4.30
2018-03-24T00:37:31.401Z,4.30
2018-03-24T00:39:58.963Z,4.30
2018-03-24T00:42:26.487Z,4.20
2018-03-24T00:44:54.755Z,4.20
2018-03-24T00:47:22.459Z,4.20
2018-03-24T00:49:50.046Z,4.20
2018-03-24T00:52:17.649Z,4.20
2018-03-24T00:54:46.115Z,4.10
2018-03-24T00:57:13.657Z,4.10
2018-03-24T00:59:41.850Z,4.10
2018-03-24T01:02:10.377Z,4.00
2018-03-24T01:04:38.508Z,4.00
2018-03-24T01:07:06.949Z,4.00
2018-03-24T01:09:34.683Z,4.00
2018-03-24T01:12:02.263Z,4.00
2018-03-24T01:14:30.434Z,4.00
2018-03-24T01:16:58.403Z,4.00
2018-03-24T01:19:26.733Z,4.00
2018-03-24T01:21:54.356Z,4.00
2018-03-24T01:24:22.066Z,3.90
2018-03-24T01:26:49.636Z,3.90
2018-03-24T01:29:17.950Z,3.90
2018-03-24T01:31:45.787Z,3.90
2018-03-24T01:34:14.234Z,3.80
2018-03-24T01:36:41.831Z,3.80
2018-03-24T01:39:09.351Z,3.80
2018-03-24T01:41:36.897Z,3.80
2018-03-24T01:44:04.400Z,3.80
2018-03-24T01:46:32.693Z,3.90
2018-03-24T01:49:00.333Z,3.80
2018-03-24T01:51:28.629Z,3.90
2018-03-24T01:53:56.346Z,3.90
2018-03-24T01:56:24.597Z,3.90
2018-03-24T01:58:52.116Z,3.90
2018-03-24T02:01:19.804Z,3.90
2018-03-24T02:03:47.465Z,4.00
2018-03-24T02:06:14.969Z,4.00
2018-03-24T02:08:42.551Z,3.90
2018-03-24T02:11:10.119Z,3.80
2018-03-24T02:13:38.533Z,3.60
2018-03-24T02:16:06.092Z,3.60
2018-03-24T02:18:33.667Z,3.60
2018-03-24T02:21:07.002Z,3.40
2018-03-24T02:23:34.603Z,3.40
2018-03-24T02:26:02.373Z,3.30
2018-03-24T02:28:29.938Z,3.30
2018-03-24T02:30:57.591Z,3.20
2018-03-24T02:33:25.180Z,3.20
2018-03-24T02:35:52.753Z,3.20
2018-03-24T02:38:20.277Z,3.20
2018-03-24T02:40:47.951Z,3.20
2018-03-24T02:43:15.449Z,3.20
2018-03-24T02:45:43.848Z,3.20
2018-03-24T02:48:11.373Z,3.20
2018-03-24T02:50:38.999Z,3.30
2018-03-24T02:53:06.562Z,3.30
2018-03-24T02:55:34.093Z,3.40
2018-03-24T02:58:01.673Z,3.50
2018-03-24T03:00:29.358Z,3.50
2018-03-24T03:02:57.093Z,3.50
2018-03-24T03:05:24.776Z,3.50
2018-03-24T03:07:52.777Z,3.60
2018-03-24T03:10:20.331Z,3.50
2018-03-24T03:12:47.909Z,3.50
2018-03-24T03:15:16.208Z,3.30
2018-03-24T03:17:43.869Z,3.30
2018-03-24T03:20:11.399Z,3.30
2018-03-24T03:22:39.804Z,3.20
2018-03-24T03:25:07.428Z,3.10
2018-03-24T03:27:35.458Z,3.10
2018-03-24T03:30:03.007Z,3.00
2018-03-24T03:32:30.535Z,2.90
2018-03-24T03:34:58.832Z,2.80
2018-03-24T03:37:26.379Z,2.80
2018-03-24T03:39:53.944Z,2.80
2018-03-24T03:42:22.754Z,2.80
2018-03-24T03:44:50.331Z,2.80
2018-03-24T03:47:17.904Z,2.70
2018-03-24T03:49:45.411Z,2.80
2018-03-24T03:52:14.018Z,2.90
2018-03-24T03:54:41.536Z,2.90
2018-03-24T03:57:09.055Z,3.00
2018-03-24T03:59:36.586Z,3.00
2018-03-24T04:02:04.296Z,3.10
2018-03-24T04:04:31.854Z,3.10
2018-03-24T04:06:59.381Z,3.20
2018-03-24T04:09:27.151Z,3.20
2018-03-24T04:11:54.712Z,3.20
2018-03-24T04:14:22.230Z,3.30
2018-03-24T04:16:50.504Z,3.30
2018-03-24T04:19:18.948Z,3.30
2018-03-24T04:21:46.446Z,3.30
2018-03-24T04:24:14.024Z,3.30
2018-03-24T04:26:41.550Z,3.40
2018-03-24T04:29:09.090Z,3.40
2018-03-24T04:31:36.737Z,3.40
2018-03-24T04:34:04.459Z,3.50
2018-03-24T04:36:32.714Z,3.50
2018-03-24T04:39:00.319Z,3.50
2018-03-24T04:41:27.818Z,3.50
2018-03-24T04:43:55.469Z,3.60
2018-03-24T04:46:23.308Z,3.60
2018-03-24T04:48:51.491Z,3.60
2018-03-24T04:51:19.073Z,3.60
2018-03-24T04:53:46.603Z,3.60
2018-03-24T04:56:14.163Z,3.60
2018-03-24T04:58:41.667Z,3.70
2018-03-24T05:01:09.280Z,3.70
2018-03-24T05:03:36.835Z,3.70
2018-03-24T05:06:04.354Z,3.60
2018-03-24T05:08:32.024Z,3.60
2018-03-24T05:10:59.600Z,3.60
2018-03-24T05:13:27.132Z,3.70
2018-03-24T05:15:54.635Z,3.80
2018-03-24T05:18:22.384Z,3.80
2018-03-24T05:20:49.895Z,3.80
2018-03-24T05:23:18.276Z,3.90
2018-03-24T05:25:45.800Z,3.90
2018-03-24T05:28:13.341Z,3.90
2018-03-24T05:30:41.081Z,3.90
2018-03-24T05:33:08.764Z,3.90
2018-03-24T05:35:37.057Z,3.90
2018-03-24T05:38:04.633Z,3.90
2018-03-24T05:40:32.179Z,4.00
2018-03-24T05:43:00.157Z,4.00
2018-03-24T05:45:27.671Z,4.10
2018-03-24T05:47:55.909Z,4.10
2018-03-24T05:50:23.436Z,4.10
2018-03-24T05:52:51.423Z,4.20
2018-03-24T05:55:19.457Z,4.20
2018-03-24T05:57:47.739Z,4.20
2018-03-24T06:00:15.281Z,4.20
2018-03-24T06:02:43.557Z,4.20
2018-03-24T06:05:11.060Z,4.30
2018-03-24T06:07:38.730Z,4.30
2018-03-24T06:10:06.243Z,4.40
2018-03-24T06:12:34.552Z,4.60
2018-03-24T06:15:02.755Z,4.60
2018-03-24T06:17:30.307Z,4.70
2018-03-24T06:19:57.870Z,4.70
2018-03-24T06:22:25.634Z,4.60
2018-03-24T06:24:53.324Z,4.60
2018-03-24T06:27:20.861Z,4.60
2018-03-24T06:29:48.385Z,4.70
2018-03-24T06:32:16.128Z,4.80
2018-03-24T06:34:44.423Z,4.90
2018-03-24T06:37:14.110Z,4.90
2018-03-24T06:39:42.431Z,4.90
2018-03-24T06:42:09.948Z,4.90
2018-03-24T06:44:37.692Z,5.10
2018-03-24T06:47:06.106Z,5.30
2018-03-24T06:49:34.484Z,5.60
2018-03-24T06:52:02.914Z,5.70
2018-03-24T06:54:30.546Z,5.70
2018-03-24T06:56:58.447Z,5.70
2018-03-24T06:59:25.990Z,5.80
2018-03-24T07:01:53.556Z,5.80
2018-03-24T07:04:21.688Z,6.00
2018-03-24T07:06:49.370Z,5.90
2018-03-24T07:09:16.912Z,6.00
2018-03-24T07:11:47.361Z,5.80
2018-03-24T07:14:14.992Z,5.80
2018-03-24T07:16:42.993Z,5.90
2018-03-24T07:19:10.556Z,5.90
2018-03-24T07:21:39.290Z,5.90
2018-03-24T07:24:11.729Z,6.00
2018-03-24T07:26:39.371Z,6.20
2018-03-24T07:29:06.887Z,6.30
2018-03-24T07:31:34.421Z,6.30
2018-03-24T07:34:01.958Z,6.30
2018-03-24T07:36:29.569Z,6.20
2018-03-24T07:38:57.127Z,6.30
2018-03-24T07:41:24.653Z,6.40
2018-03-24T07:43:52.374Z,6.40
2018-03-24T07:46:20.721Z,6.50
2018-03-24T07:48:49.507Z,6.60
2018-03-24T07:51:17.130Z,6.60
2018-03-24T07:53:44.753Z,6.90
2018-03-24T07:56:13.068Z,6.90
2018-03-24T07:58:41.450Z,6.90
2018-03-24T08:01:09.551Z,6.70
2018-03-24T08:03:37.081Z,6.80
2018-03-24T08:06:04.679Z,6.90
2018-03-24T08:08:33.182Z,7.10
2018-03-24T08:11:00.796Z,7.00
2018-03-24T08:13:28.327Z,7.20
2018-03-24T08:15:55.926Z,7.10
2018-03-24T08:18:23.438Z,7.20
2018-03-24T08:20:51.012Z,7.30
2018-03-24T08:23:18.533Z,7.30
2018-03-24T08:25:46.889Z,7.50
2018-03-24T08:28:14.538Z,7.50
2018-03-24T08:30:42.097Z,7.50
2018-03-24T08:33:09.685Z,7.50
2018-03-24T08:35:37.241Z,7.60
2018-03-24T08:38:05.126Z,7.70
2018-03-24T08:40:34.070Z,8.00
2018-03-24T08:43:02.615Z,8.10
2018-03-24T08:45:30.603Z,8.10
2018-03-24T08:47:58.508Z,8.40
2018-03-24T08:50:26.049Z,8.40
2018-03-24T08:52:53.603Z,8.60
2018-03-24T08:55:22.216Z,8.60
2018-03-24T08:57:49.773Z,8.50
2018-03-24T09:00:17.387Z,8.60
2018-03-24T09:02:44.966Z,8.60
2018-03-24T09:05:12.534Z,8.60
2018-03-24T09:07:40.286Z,8.60
2018-03-24T09:10:07.862Z,8.70
2018-03-24T09:12:35.405Z,9.00
2018-03-24T09:15:03.121Z,9.50
2018-03-24T09:17:30.582Z,9.80
2018-03-24T09:19:59.750Z,10.30
2018-03-24T09:22:27.405Z,10.20
2018-03-24T09:24:54.973Z,10.40
2018-03-24T09:27:22.594Z,10.50
2018-03-24T09:29:50.270Z,10.50
2018-03-24T09:32:17.813Z,10.30
2018-03-24T09:34:45.443Z,10.10
2018-03-24T09:37:13.008Z,9.80
2018-03-24T09:39:40.533Z,9.80
2018-03-24T09:42:08.157Z,9.80
2018-03-24T09:44:35.658Z,10.10
2018-03-24T09:47:03.275Z,10.30
2018-03-24T09:49:30.869Z,10.40
2018-03-24T09:51:58.571Z,10.50
2018-03-24T09:54:26.904Z,11.10
2018-03-24T09:56:54.543Z,11.00
2018-03-24T09:59:22.138Z,11.00
2018-03-24T10:01:49.676Z,11.00
2018-03-24T10:04:17.421Z,11.20
2018-03-24T10:06:44.990Z,11.50
2018-03-24T10:09:12.767Z,11.20
2018-03-24T10:11:40.410Z,11.20
2018-03-24T10:14:07.981Z,11.20
2018-03-24T10:16:35.651Z,11.00
2018-03-24T10:19:03.407Z,10.90
2018-03-24T10:24:45.297Z,10.80
2018-03-24T10:27:12.855Z,10.70
2018-03-24T10:29:41.481Z,11.30
2018-03-24T10:32:09.038Z,11.30
2018-03-24T10:34:36.554Z,11.50
2018-03-24T10:37:05.233Z,12.00
2018-03-24T10:39:32.755Z,12.00
2018-03-24T10:42:00.289Z,11.90
2018-03-24T10:44:27.806Z,12.00
2018-03-24T10:46:55.369Z,12.00
2018-03-24T10:49:22.923Z,11.90
2018-03-24T10:51:50.481Z,11.50
2018-03-24T10:54:18.286Z,11.30
2018-03-24T10:56:46.194Z,11.20
2018-03-24T10:59:13.777Z,11.10
2018-03-24T11:01:41.801Z,11.00
2018-03-24T11:04:09.391Z,10.80
2018-03-24T11:06:36.946Z,10.80
2018-03-24T11:09:04.560Z,11.00
2018-03-24T11:11:32.954Z,10.80
2018-03-24T11:14:00.638Z,10.80
2018-03-24T11:16:28.189Z,10.70
2018-03-24T11:18:56.491Z,10.80
2018-03-24T11:21:24.266Z,11.00
2018-03-24T11:23:51.838Z,11.00
2018-03-24T11:26:19.592Z,10.90
2018-03-24T11:28:47.207Z,11.00
2018-03-24T11:31:14.751Z,11.10
2018-03-24T11:33:43.078Z,11.50
2018-03-24T11:36:10.702Z,11.50
2018-03-24T11:38:38.299Z,11.50
2018-03-24T11:41:06.401Z,11.70
2018-03-24T11:43:34.143Z,11.90
2018-03-24T11:46:01.688Z,11.70
2018-03-24T11:48:29.287Z,11.20
2018-03-24T11:50:57.650Z,11.10
2018-03-24T11:53:37.061Z,11.10
2018-03-24T11:56:04.585Z,11.40
2018-03-24T11:58:32.339Z,11.50
2018-03-24T12:01:00.650Z,11.30
2018-03-24T12:03:28.464Z,11.30
2018-03-24T12:05:55.992Z,11.20
2018-03-24T12:08:24.362Z,11.50
2018-03-24T12:10:51.910Z,11.60
2018-03-24T12:13:19.776Z,11.60
2018-03-24T12:15:47.525Z,11.60
2018-03-24T12:18:15.090Z,11.70
2018-03-24T12:20:42.714Z,11.60
2018-03-24T12:23:10.395Z,11.60
2018-03-24T12:25:38.748Z,11.90
2018-03-24T12:28:06.564Z,11.90
2018-03-24T12:30:34.254Z,11.80
2018-03-24T12:33:02.036Z,11.90
2018-03-24T12:35:30.418Z,11.70
2018-03-24T12:37:58.076Z,11.70
2018-03-24T12:40:25.710Z,11.90
2018-03-24T12:42:54.303Z,12.00
2018-03-24T12:45:21.948Z,12.30
2018-03-24T12:47:49.464Z,12.10
2018-03-24T12:50:17.816Z,12.10
2018-03-24T12:52:45.379Z,12.10
2018-03-24T12:55:13.218Z,12.00
2018-03-24T12:57:40.941Z,11.90
2018-03-24T13:00:09.371Z,12.40
2018-03-24T13:02:36.949Z,12.40
2018-03-24T13:05:04.526Z,12.50
2018-03-24T13:07:32.474Z,12.10
2018-03-24T13:10:00.011Z,12.30
2018-03-24T13:12:27.669Z,12.30
2018-03-24T13:14:55.206Z,12.10
2018-03-24T13:17:22.797Z,12.10
2018-03-24T13:19:50.384Z,12.30
2018-03-24T13:22:18.154Z,12.30
2018-03-24T13:24:46.498Z,12.30
2018-03-24T13:27:14.043Z,12.30
2018-03-24T13:29:41.723Z,12.10
2018-03-24T13:32:09.468Z,11.90
2018-03-24T13:34:37.119Z,12.00
2018-03-24T13:37:05.468Z,11.40
2018-03-24T13:39:33.188Z,11.30
2018-03-24T13:42:00.950Z,11.10
2018-03-24T13:44:28.505Z,10.90
2018-03-24T13:46:56.090Z,10.50
2018-03-24T13:49:23.661Z,10.10
2018-03-24T13:51:51.251Z,9.80
2018-03-24T13:54:19.872Z,9.00
2018-03-24T13:56:47.432Z,9.00
2018-03-24T13:59:15.016Z,8.80
2018-03-24T14:01:42.577Z,8.70
2018-03-24T14:04:10.429Z,8.80
2018-03-24T14:06:38.194Z,9.00
2018-03-24T14:09:06.397Z,9.00
2018-03-24T14:11:34.515Z,9.00
2018-03-24T14:14:02.222Z,8.80
2018-03-24T14:16:29.786Z,8.60
2018-03-24T14:18:57.311Z,8.70
2018-03-24T14:21:25.285Z,8.60
2018-03-24T14:23:52.816Z,8.60
2018-03-24T14:26:21.265Z,8.50
2018-03-24T14:28:48.788Z,8.50
2018-03-24T14:31:16.554Z,8.50
2018-03-24T14:33:44.673Z,8.50
2018-03-24T14:36:15.053Z,8.50
2018-03-24T14:38:42.604Z,8.50
2018-03-24T14:41:10.377Z,8.50
2018-03-24T14:43:38.061Z,8.30
2018-03-24T14:46:05.635Z,8.30
2018-03-24T14:48:33.645Z,8.30
2018-03-24T14:51:01.175Z,8.50
2018-03-24T14:53:29.492Z,8.40
2018-03-24T14:55:57.059Z,8.40
2018-03-24T14:58:24.583Z,8.50
2018-03-24T15:00:53.001Z,8.50
2018-03-24T15:03:20.558Z,8.60
2018-03-24T15:05:48.093Z,8.60
2018-03-24T15:08:16.773Z,8.60
2018-03-24T15:10:45.998Z,8.60
2018-03-24T15:13:13.556Z,8.60
2018-03-24T15:15:41.090Z,8.50
2018-03-24T15:18:09.359Z,8.40
2018-03-24T15:20:36.857Z,8.40
2018-03-24T15:23:04.394Z,8.20
2018-03-24T15:25:32.665Z,8.10
2018-03-24T15:28:00.956Z,8.10
2018-03-24T15:30:40.297Z,8.10
2018-03-24T15:33:19.583Z,8.00
2018-03-24T15:38:51.508Z,7.70
2018-03-24T15:41:19.784Z,7.70
2018-03-24T15:43:47.347Z,7.70
2018-03-24T15:46:14.894Z,7.70
2018-03-24T15:48:43.246Z,7.80
2018-03-24T15:51:11.850Z,7.70
2018-03-24T15:53:39.535Z,7.70
2018-03-24T15:56:08.082Z,7.70
2018-03-24T15:58:35.590Z,7.70
2018-03-24T16:01:03.343Z,7.70
2018-03-24T16:03:30.862Z,7.70
2018-03-24T16:05:58.411Z,7.70
2018-03-24T16:08:26.026Z,7.80
2018-03-24T16:10:53.796Z,7.80
2018-03-24T16:13:21.478Z,7.80
2018-03-24T16:15:49.105Z,7.70
2018-03-24T16:18:17.194Z,7.70
2018-03-24T16:20:45.255Z,7.60
2018-03-24T16:23:12.800Z,7.60
2018-03-24T16:25:40.362Z,7.50
2018-03-24T16:28:07.895Z,7.40
2018-03-24T16:30:35.425Z,7.40
2018-03-24T16:33:03.136Z,7.30
2018-03-24T16:35:31.452Z,7.20
2018-03-24T16:37:59.776Z,7.30
2018-03-24T16:40:28.169Z,7.10
2018-03-24T16:42:55.972Z,7.10
2018-03-24T16:45:23.610Z,7.10
2018-03-24T16:47:52.380Z,7.10
2018-03-24T16:50:20.703Z,7.00
2018-03-24T16:52:48.229Z,7.00
2018-03-24T16:55:15.874Z,7.00
2018-03-24T16:57:43.493Z,6.90
2018-03-24T17:00:11.230Z,6.90
2018-03-24T17:02:39.110Z,6.90
2018-03-24T17:05:06.675Z,6.80
2018-03-24T17:07:34.223Z,6.70
2018-03-24T17:10:01.775Z,6.70
2018-03-24T17:12:29.795Z,6.60
2018-03-24T17:14:58.329Z,6.60
2018-03-24T17:17:25.869Z,6.60
2018-03-24T17:19:53.664Z,6.50
2018-03-24T17:22:21.206Z,6.50
2018-03-24T17:24:48.752Z,6.40
2018-03-24T17:27:17.067Z,6.30
2018-03-24T17:29:44.611Z,6.30
2018-03-24T17:32:12.199Z,6.30
2018-03-24T17:34:39.895Z,6.30
2018-03-24T17:37:07.471Z,6.30
2018-03-24T17:39:35.028Z,6.20
2018-03-24T17:42:02.840Z,6.20
2018-03-24T17:44:30.987Z,6.20
2018-03-24T17:46:58.541Z,6.20
2018-03-24T17:49:26.940Z,6.20
2018-03-24T17:51:54.606Z,6.10
2018-03-24T17:54:22.299Z,6.10
2018-03-24T17:56:49.847Z,6.10
2018-03-24T17:59:17.440Z,6.00
2018-03-24T18:01:45.996Z,6.00
2018-03-24T18:04:13.551Z,6.00
2018-03-24T18:06:41.287Z,6.00
2018-03-24T18:09:08.813Z,5.90
2018-03-24T18:11:37.189Z,5.90
2018-03-24T18:14:04.721Z,5.90
2018-03-24T18:16:32.274Z,5.80
2018-03-24T18:19:00.254Z,5.80
2018-03-24T18:21:28.772Z,5.80
2018-03-24T18:23:59.105Z,5.70
2018-03-24T18:26:26.736Z,5.70
2018-03-24T18:28:54.259Z,5.60
2018-03-24T18:31:22.179Z,5.60
2018-03-24T18:33:49.972Z,5.60
2018-03-24T18:36:18.392Z,5.60
2018-03-24T18:38:45.963Z,5.50
2018-03-24T18:41:13.491Z,5.50
2018-03-24T18:43:41.178Z,5.50
2018-03-24T18:46:08.692Z,5.40
2018-03-24T18:48:36.338Z,5.40
2018-03-24T18:51:04.213Z,5.40
2018-03-24T18:53:31.763Z,5.40
2018-03-24T18:55:59.285Z,5.30
2018-03-24T18:58:26.892Z,5.30
2018-03-24T19:00:55.050Z,5.40
2018-03-24T19:03:22.615Z,5.30
2018-03-24T19:05:51.074Z,5.30
2018-03-24T19:08:18.707Z,5.30
2018-03-24T19:10:47.166Z,5.20
2018-03-24T19:13:15.956Z,5.20
2018-03-24T19:15:43.595Z,5.20
2018-03-24T19:18:12.133Z,5.20
2018-03-24T19:20:39.821Z,5.20
2018-03-24T19:23:08.211Z,5.10
2018-03-24T19:25:36.616Z,5.10
2018-03-24T19:28:04.398Z,5.10
2018-03-24T19:30:31.933Z,5.10
2018-03-24T19:32:59.519Z,5.00
2018-03-24T19:35:27.586Z,5.00
2018-03-24T19:37:56.549Z,5.00
2018-03-24T19:40:24.084Z,4.90
2018-03-24T19:42:53.599Z,5.00
2018-03-24T19:45:23.322Z,4.90
2018-03-24T19:47:50.879Z,4.90
2018-03-24T19:50:19.692Z,4.80
2018-03-24T19:52:47.645Z,4.80
2018-03-24T19:55:15.255Z,4.80
2018-03-24T19:57:43.081Z,4.80
2018-03-24T20:00:11.361Z,4.80
2018-03-24T20:02:39.062Z,4.70
2018-03-24T20:05:06.839Z,4.70
2018-03-24T20:07:35.421Z,4.70
2018-03-24T20:10:03.142Z,4.70
2018-03-24T20:12:30.727Z,4.70
2018-03-24T20:14:58.356Z,4.70
2018-03-24T20:17:26.228Z,4.60
2018-03-24T20:19:58.127Z,4.60
2018-03-24T20:22:25.659Z,4.60
2018-03-24T20:24:53.212Z,4.60
2018-03-24T20:27:20.997Z,4.50
2018-03-24T20:29:48.748Z,4.50
2018-03-24T20:32:16.516Z,4.50
2018-03-24T20:34:44.912Z,4.50
2018-03-24T20:37:13.472Z,4.50
2018-03-24T20:39:41.302Z,4.50
2018-03-24T20:42:10.542Z,4.50
2018-03-24T20:44:38.180Z,4.40
2018-03-24T20:47:05.716Z,4.40
2018-03-24T20:49:33.273Z,4.40
2018-03-24T20:52:00.873Z,4.40
2018-03-24T20:54:28.453Z,4.40
2018-03-24T20:56:56.089Z,4.40
2018-03-24T20:59:23.665Z,4.40
2018-03-24T21:01:51.616Z,4.40
2018-03-24T21:04:19.999Z,4.40
2018-03-24T21:06:47.530Z,4.30
2018-03-24T21:09:15.956Z,4.30
2018-03-24T21:11:44.147Z,4.30
2018-03-24T21:14:11.727Z,4.30
2018-03-24T21:16:39.295Z,4.30
2018-03-24T21:19:06.821Z,4.30
2018-03-24T21:24:08.190Z,4.20
2018-03-24T21:26:35.771Z,4.20
2018-03-24T21:29:03.849Z,4.20
2018-03-24T21:31:31.532Z,4.20
2018-03-24T21:33:59.737Z,4.20
2018-03-24T21:36:27.283Z,4.20
2018-03-24T21:38:54.816Z,4.20
2018-03-24T21:41:23.288Z,4.20
2018-03-24T21:43:51.106Z,4.20
2018-03-24T21:46:18.875Z,4.20
2018-03-24T21:48:46.728Z,4.20
2018-03-24T21:51:14.969Z,4.20
2018-03-24T21:53:42.507Z,4.20
2018-03-24T21:56:10.320Z,4.20
2018-03-24T21:58:37.858Z,4.20
2018-03-24T22:01:05.736Z,4.20
2018-03-24T22:03:33.250Z,4.20
2018-03-24T22:06:00.919Z,4.10
2018-03-24T22:08:28.440Z,4.10
2018-03-24T22:10:55.967Z,4.10
2018-03-24T22:13:23.672Z,4.10
2018-03-24T22:15:51.243Z,4.10
2018-03-24T22:18:19.393Z,4.10
2018-03-24T22:20:46.941Z,4.10
2018-03-24T22:23:14.454Z,4.10
2018-03-24T22:25:42.031Z,4.10
2018-03-24T22:28:09.721Z,4.10
2018-03-24T22:30:37.256Z,4.10
2018-03-24T22:33:04.898Z,4.10
2018-03-24T22:35:32.849Z,4.10
2018-03-24T22:38:01.347Z,4.10
2018-03-24T22:40:28.881Z,4.10
2018-03-24T22:42:56.431Z,4.10
2018-03-24T22:45:24.099Z,4.10
2018-03-24T22:47:51.656Z,4.10
2018-03-24T22:50:19.222Z,4.10
2018-03-24T22:52:46.945Z,4.10
2018-03-24T22:55:15.093Z,4.10
2018-03-24T22:57:42.620Z,4.10
2018-03-24T23:00:10.140Z,4.10
2018-03-24T23:02:38.562Z,4.10
2018-03-24T23:05:06.465Z,4.10
2018-03-24T23:07:34.633Z,4.10
2018-03-24T23:10:02.157Z,4.10
2018-03-24T23:12:29.899Z,4.10
2018-03-24T23:14:57.480Z,4.10
2018-03-24T23:17:25.020Z,4.10
2018-03-24T23:19:52.968Z,4.10
2018-03-24T23:22:21.347Z,4.10
2018-03-24T23:24:49.940Z,4.10
2018-03-24T23:27:19.048Z,4.10
2018-03-24T23:29:47.348Z,4.10
2018-03-24T23:32:15.016Z,4.10
2018-03-24T23:34:42.920Z,4.10
2018-03-24T23:37:10.490Z,4.00
2018-03-24T23:39:38.015Z,4.00
2018-03-24T23:42:05.588Z,4.00
2018-03-24T23:44:33.491Z,4.00
2018-03-24T23:47:01.078Z,4.00
2018-03-24T23:49:28.617Z,4.00
2018-03-24T23:51:56.897Z,4.00
2018-03-24T23:54:25.192Z,4.00
2018-03-24T23:56:52.831Z,3.90
2018-03-24T23:59:21.107Z,3.90
